Time;durP1;ratioP1;P1;durP2;ratioP2;P2;SDS_P1;SDS_P2;PMS_P1;PMS_P2;Temp;Humidity;BMP_temperature;BMP_pressure;BME280_temperature;BME280_humidity;BME280_pressure;Samples;Min_cycle;Max_cycle;Signal;HPM_P1;HPM_P2
2021/03/31 00:02:14;;;;;;;5.63;1.37;;;9.00;95.50;;;;;;5071004;28;20457;-67
2021/03/31 00:04:40;;;;;;;1.93;1.40;;;9.00;95.80;;;;;;5071956;28;20826;-68
2021/03/31 00:07:10;;;;;;;1.93;1.60;;;9.20;95.50;;;;;;5070615;28;20763;-67
2021/03/31 00:09:37;;;;;;;1.30;1.23;;;9.20;95.20;;;;;;5072510;28;20874;-68
2021/03/31 00:12:04;;;;;;;2.27;1.70;;;9.20;95.20;;;;;;5071060;28;21045;-67
2021/03/31 00:14:30;;;;;;;1.30;1.10;;;9.20;95.20;;;;;;5072533;28;20490;-68
2021/03/31 00:16:57;;;;;;;1.80;1.23;;;8.90;96.30;;;;;;5071266;28;20518;-67
2021/03/31 00:19:23;;;;;;;1.30;1.20;;;8.70;97.30;;;;;;5072547;28;20454;-68
2021/03/31 00:21:50;;;;;;;1.30;1.30;;;8.40;98.00;;;;;;5070715;28;20917;-68
2021/03/31 00:24:17;;;;;;;1.30;1.20;;;8.30;98.00;;;;;;5072408;28;20465;-67
2021/03/31 00:26:44;;;;;;;1.40;1.10;;;8.30;98.00;;;;;;5070535;28;20464;-68
2021/03/31 00:29:10;;;;;;;1.20;1.10;;;8.30;98.00;;;;;;5072281;28;20970;-68
2021/03/31 00:31:37;;;;;;;1.20;1.00;;;8.30;98.00;;;;;;5071138;28;20457;-68
2021/03/31 00:34:03;;;;;;;1.70;1.47;;;8.20;98.00;;;;;;5072204;28;20574;-68
2021/03/31 00:36:30;;;;;;;1.20;1.13;;;8.20;98.00;;;;;;5072419;28;20493;-68
2021/03/31 00:38:56;;;;;;;1.20;1.07;;;8.10;98.00;;;;;;5069870;28;20470;-68
2021/03/31 00:41:24;;;;;;;1.47;1.20;;;8.10;98.00;;;;;;5070944;28;20485;-67
2021/03/31 00:43:50;;;;;;;1.67;1.63;;;8.00;98.00;;;;;;5070274;28;20511;-68
2021/03/31 00:46:17;;;;;;;1.90;1.57;;;7.90;98.00;;;;;;5072057;28;20913;-68
2021/03/31 00:48:43;;;;;;;1.30;1.10;;;7.90;98.00;;;;;;5070148;28;20486;-67
2021/03/31 00:51:10;;;;;;;2.60;1.70;;;7.90;98.00;;;;;;5070747;28;20512;-67
2021/03/31 00:53:39;;;;;;;2.33;1.43;;;8.00;98.00;;;;;;5069958;28;20488;-68
2021/03/31 00:56:07;;;;;;;1.20;1.10;;;8.10;98.00;;;;;;5071884;28;20468;-68
2021/03/31 00:58:36;;;;;;;2.27;1.37;;;7.90;98.00;;;;;;5070146;28;20943;-67
2021/03/31 01:01:03;;;;;;;1.50;1.37;;;7.90;98.00;;;;;;5071752;28;20495;-67
2021/03/31 01:03:29;;;;;;;2.60;1.37;;;7.80;98.00;;;;;;5069962;28;20487;-67
2021/03/31 01:05:56;;;;;;;1.20;1.20;;;7.70;98.00;;;;;;5071625;28;20493;-67
2021/03/31 01:08:23;;;;;;;2.23;1.57;;;7.60;98.00;;;;;;5069922;28;20466;-67
2021/03/31 01:10:53;;;;;;;1.20;1.03;;;7.70;98.00;;;;;;5071454;28;20523;-68
2021/03/31 01:13:49;;;;;;;1.80;1.30;;;7.90;98.00;;;;;;5068549;28;20484;-67
2021/03/31 01:16:31;;;;;;;1.53;1.20;;;8.00;98.00;;;;;;5057837;28;20457;-67
2021/03/31 01:19:02;;;;;;;1.20;1.00;;;8.00;98.00;;;;;;5069634;28;20518;-68
2021/03/31 01:22:12;;;;;;;1.30;1.20;;;7.80;98.00;;;;;;5069765;28;20462;-68
2021/03/31 01:25:08;;;;;;;1.30;1.20;;;7.70;98.00;;;;;;5013764;28;20501;-67
2021/03/31 01:28:03;;;;;;;1.80;1.37;;;7.70;98.00;;;;;;5069350;28;20502;-67
2021/03/31 01:30:39;;;;;;;1.20;1.10;;;7.60;98.00;;;;;;5070960;28;20504;-67
2021/03/31 01:33:23;;;;;;;3.63;1.80;;;7.60;98.00;;;;;;5068795;28;20461;-67
2021/03/31 01:35:54;;;;;;;2.23;1.63;;;7.50;98.00;;;;;;5071058;28;20905;-68
2021/03/31 01:38:25;;;;;;;1.37;1.27;;;7.50;98.00;;;;;;5069232;28;20488;-67
2021/03/31 01:40:53;;;;;;;2.13;1.43;;;7.50;98.00;;;;;;5071099;28;20492;-68
2021/03/31 01:43:24;;;;;;;3.00;1.70;;;7.60;98.00;;;;;;5069049;28;20457;-67
2021/03/31 01:45:54;;;;;;;1.20;1.00;;;7.40;98.00;;;;;;5070697;28;20480;-68
2021/03/31 01:48:31;;;;;;;1.80;1.30;;;7.40;98.00;;;;;;5069250;28;20907;-67
2021/03/31 01:51:03;;;;;;;1.30;1.10;;;7.60;98.00;;;;;;5069087;28;20517;-67
2021/03/31 01:53:32;;;;;;;1.60;1.30;;;7.60;98.00;;;;;;5069190;28;20456;-67
2021/03/31 01:56:00;;;;;;;1.20;1.10;;;7.40;98.00;;;;;;5070841;28;20461;-68
2021/03/31 01:58:30;;;;;;;1.30;1.20;;;7.20;98.00;;;;;;5069030;28;20509;-67
2021/03/31 02:00:57;;;;;;;1.20;1.10;;;7.20;98.00;;;;;;5071019;28;20460;-68
2021/03/31 02:03:25;;;;;;;1.73;1.30;;;7.10;98.00;;;;;;5069520;28;20459;-67
2021/03/31 02:05:55;;;;;;;3.03;1.20;;;7.10;98.00;;;;;;5070870;28;20460;-68
2021/03/31 02:08:24;;;;;;;2.50;1.53;;;7.30;98.00;;;;;;5068943;28;20457;-67
2021/03/31 02:10:51;;;;;;;2.50;1.23;;;7.10;98.00;;;;;;5070560;28;20882;-67
2021/03/31 02:13:20;;;;;;;1.40;1.20;;;6.90;98.00;;;;;;5068847;28;20452;-67
2021/03/31 02:15:51;;;;;;;3.43;1.93;;;6.90;98.00;;;;;;5052723;28;20548;-68
2021/03/31 02:18:19;;;;;;;1.90;1.43;;;7.00;98.00;;;;;;5068766;28;20449;-67
2021/03/31 02:20:46;;;;;;;1.80;1.60;;;6.90;98.00;;;;;;5070373;28;20945;-68
2021/03/31 02:23:14;;;;;;;1.30;1.20;;;6.80;98.00;;;;;;5068608;28;20475;-67
2021/03/31 02:25:41;;;;;;;1.97;1.77;;;6.80;98.00;;;;;;5070298;28;20521;-67
2021/03/31 02:28:08;;;;;;;1.20;1.00;;;7.00;98.00;;;;;;5069035;28;20467;-68
2021/03/31 02:30:35;;;;;;;1.20;1.00;;;6.90;98.00;;;;;;5074501;28;20467;-68
2021/03/31 02:33:04;;;;;;;1.93;1.63;;;6.90;98.00;;;;;;5072696;28;20469;-67
2021/03/31 02:35:32;;;;;;;1.20;1.10;;;6.80;98.00;;;;;;5074373;28;20488;-68
2021/03/31 02:38:04;;;;;;;1.80;1.23;;;6.80;98.00;;;;;;5072346;28;20800;-67
2021/03/31 02:40:31;;;;;;;1.37;1.10;;;6.80;98.00;;;;;;5073153;28;20697;-67
2021/03/31 02:43:01;;;;;;;1.40;1.10;;;7.00;98.00;;;;;;5072443;28;20900;-67
2021/03/31 02:45:30;;;;;;;1.20;1.00;;;7.10;98.00;;;;;;5074089;28;20499;-67
2021/03/31 02:48:01;;;;;;;1.40;1.30;;;7.00;98.00;;;;;;5072470;28;20544;-68
2021/03/31 02:50:30;;;;;;;1.37;1.20;;;6.90;98.00;;;;;;5074098;28;20836;-67
2021/03/31 02:52:58;;;;;;;1.50;1.40;;;6.80;98.00;;;;;;5072248;28;20514;-68
2021/03/31 02:55:26;;;;;;;1.30;1.20;;;6.60;98.00;;;;;;5073975;28;20522;-67
2021/03/31 02:57:54;;;;;;;1.30;1.10;;;6.60;98.00;;;;;;5072381;28;20966;-68
2021/03/31 03:00:23;;;;;;;1.20;1.20;;;6.80;98.00;;;;;;5074114;28;20458;-67
2021/03/31 03:02:50;;;;;;;1.57;1.27;;;6.90;98.00;;;;;;5072162;28;20464;-67
2021/03/31 03:05:20;;;;;;;1.50;1.40;;;7.00;98.00;;;;;;5072783;28;20613;-66
2021/03/31 03:07:48;;;;;;;1.73;1.47;;;6.90;98.00;;;;;;5072177;28;20454;-67
2021/03/31 03:10:15;;;;;;;1.57;1.43;;;6.60;98.00;;;;;;5073736;28;20458;-68
2021/03/31 03:12:45;;;;;;;1.60;1.30;;;6.50;98.00;;;;;;5072085;28;20466;-67
2021/03/31 03:15:15;;;;;;;1.20;1.00;;;6.40;98.00;;;;;;5073669;28;20522;-68
2021/03/31 03:17:45;;;;;;;1.20;1.10;;;6.40;98.00;;;;;;5072601;28;20527;-67
2021/03/31 03:20:13;;;;;;;1.60;1.47;;;6.50;98.00;;;;;;5073854;28;20473;-67
2021/03/31 03:22:43;;;;;;;1.20;1.00;;;6.50;98.00;;;;;;5071632;28;20470;-67
2021/03/31 03:25:12;;;;;;;1.20;1.00;;;6.60;98.00;;;;;;5072407;28;20956;-67
2021/03/31 03:27:41;;;;;;;1.20;1.10;;;6.70;98.00;;;;;;5071880;28;20459;-67
2021/03/31 03:30:11;;;;;;;1.20;1.20;;;6.60;98.00;;;;;;5073419;28;20447;-67
2021/03/31 03:32:40;;;;;;;1.20;1.00;;;6.50;98.00;;;;;;5070371;28;20463;-67
2021/03/31 03:35:10;;;;;;;1.20;1.00;;;6.40;98.00;;;;;;5073272;28;21012;-68
2021/03/31 03:37:37;;;;;;;1.30;1.10;;;6.40;98.00;;;;;;5071412;28;20454;-67
2021/03/31 03:40:05;;;;;;;1.20;1.00;;;6.30;98.00;;;;;;5073269;28;20519;-67
2021/03/31 03:42:33;;;;;;;1.73;1.57;;;6.10;98.00;;;;;;5071471;28;20976;-68
2021/03/31 03:45:01;;;;;;;1.77;1.53;;;6.00;98.00;;;;;;5073187;28;20468;-67
2021/03/31 03:47:28;;;;;;;1.20;1.00;;;6.20;98.00;;;;;;5071347;28;20952;-67
2021/03/31 03:49:55;;;;;;;1.50;1.33;;;6.00;98.00;;;;;;5073003;28;20855;-67
2021/03/31 03:52:23;;;;;;;2.47;1.50;;;5.80;98.00;;;;;;5071231;28;20448;-67
2021/03/31 03:54:51;;;;;;;1.70;1.20;;;5.80;98.00;;;;;;5072841;28;20492;-67
2021/03/31 03:57:23;;;;;;;1.20;1.00;;;5.70;98.00;;;;;;5071328;28;20823;-67
2021/03/31 03:59:49;;;;;;;3.00;1.53;;;5.70;98.00;;;;;;5072888;28;20456;-67
2021/03/31 04:02:16;;;;;;;1.40;1.20;;;5.80;98.00;;;;;;5071251;28;20466;-68
2021/03/31 04:04:42;;;;;;;1.93;1.80;;;5.70;98.00;;;;;;5072917;28;20460;-67
2021/03/31 04:07:08;;;;;;;1.97;1.57;;;5.60;98.00;;;;;;5071182;28;20465;-67
2021/03/31 04:09:37;;;;;;;1.20;0.97;;;5.60;98.00;;;;;;5072836;28;20489;-67
2021/03/31 04:12:05;;;;;;;1.67;1.50;;;5.70;98.00;;;;;;5070829;28;20464;-68
2021/03/31 04:14:33;;;;;;;1.50;1.40;;;5.60;98.00;;;;;;5072536;28;20526;-67
2021/03/31 04:17:02;;;;;;;1.20;0.90;;;5.50;98.00;;;;;;5070949;28;20868;-67
2021/03/31 04:19:30;;;;;;;1.97;1.37;;;5.50;98.00;;;;;;5072544;28;20482;-67
2021/03/31 04:21:56;;;;;;;2.13;1.43;;;5.60;98.00;;;;;;5072150;28;20458;-67
2021/03/31 04:24:23;;;;;;;1.20;1.10;;;5.80;98.00;;;;;;5071536;28;20463;-67
2021/03/31 04:26:53;;;;;;;1.83;1.53;;;5.70;98.00;;;;;;5072640;28;20496;-67
2021/03/31 04:29:20;;;;;;;1.20;1.17;;;5.90;98.00;;;;;;5069492;28;20457;-67
2021/03/31 04:31:48;;;;;;;1.77;1.37;;;6.00;98.00;;;;;;5072414;28;20457;-67
2021/03/31 04:34:15;;;;;;;1.20;1.00;;;6.10;98.00;;;;;;5070606;28;20522;-67
2021/03/31 04:36:43;;;;;;;2.27;1.50;;;5.90;98.00;;;;;;5073256;28;20820;-68
2021/03/31 04:39:11;;;;;;;1.20;1.20;;;5.60;98.00;;;;;;5070680;28;20465;-67
2021/03/31 04:41:39;;;;;;;1.20;1.00;;;5.60;98.00;;;;;;5072063;28;20470;-67
2021/03/31 04:44:07;;;;;;;1.33;1.10;;;5.70;98.00;;;;;;5070845;28;20543;-67
2021/03/31 04:46:34;;;;;;;1.67;1.40;;;5.50;98.00;;;;;;5071920;28;20520;-68
2021/03/31 04:49:01;;;;;;;1.50;1.40;;;5.60;98.00;;;;;;5070133;28;20450;-67
2021/03/31 04:51:27;;;;;;;1.53;1.37;;;5.50;98.00;;;;;;5071686;28;20515;-67
2021/03/31 04:53:54;;;;;;;2.50;2.13;;;5.30;98.00;;;;;;5070536;28;20460;-67
2021/03/31 04:56:21;;;;;;;2.00;1.43;;;5.30;98.00;;;;;;5070711;28;20838;-67
2021/03/31 04:58:47;;;;;;;5.33;1.83;;;5.10;98.00;;;;;;5070039;28;20464;-66
2021/03/31 05:01:15;;;;;;;1.30;1.10;;;5.10;98.00;;;;;;5071731;28;20459;-67
2021/03/31 05:03:41;;;;;;;1.20;1.00;;;5.10;98.00;;;;;;5070150;28;20467;-67
2021/03/31 05:06:08;;;;;;;1.20;1.00;;;5.20;98.00;;;;;;5072027;28;20459;-67
2021/03/31 05:08:34;;;;;;;1.43;1.20;;;5.40;98.00;;;;;;5070017;28;20466;-68
2021/03/31 05:11:01;;;;;;;1.77;1.40;;;5.50;98.00;;;;;;5071681;28;20942;-67
2021/03/31 05:13:28;;;;;;;1.20;1.07;;;5.70;98.00;;;;;;5069910;28;20461;-68
2021/03/31 05:15:54;;;;;;;1.30;1.03;;;5.80;98.00;;;;;;5070077;28;20552;-67
2021/03/31 05:18:22;;;;;;;1.20;1.00;;;5.80;98.00;;;;;;5068238;28;20492;-67
2021/03/31 05:20:49;;;;;;;1.30;1.23;;;6.00;98.00;;;;;;5071307;28;20460;-68
2021/03/31 05:23:15;;;;;;;1.40;1.20;;;5.90;98.00;;;;;;5069496;28;20472;-67
2021/03/31 05:25:42;;;;;;;1.30;1.30;;;5.60;98.00;;;;;;5071287;28;20495;-67
2021/03/31 05:28:08;;;;;;;1.30;1.20;;;5.50;98.00;;;;;;5051568;28;20795;-67
2021/03/31 05:30:38;;;;;;;2.77;1.63;;;5.70;98.00;;;;;;5071086;28;20457;-68
2021/03/31 05:33:05;;;;;;;1.30;1.10;;;5.70;98.00;;;;;;5069256;28;20554;-67
2021/03/31 05:35:40;;;;;;;3.00;1.60;;;5.70;98.00;;;;;;5071187;28;20516;-67
2021/03/31 05:38:07;;;;;;;1.40;1.30;;;5.80;98.00;;;;;;5069202;28;20461;-67
2021/03/31 05:40:33;;;;;;;1.30;1.17;;;5.70;98.00;;;;;;5071019;28;20457;-68
2021/03/31 05:43:00;;;;;;;1.20;1.00;;;5.60;98.00;;;;;;5069343;28;20457;-68
2021/03/31 05:45:28;;;;;;;1.97;1.33;;;5.70;98.00;;;;;;5070912;28;20473;-67
2021/03/31 05:47:55;;;;;;;1.20;1.07;;;5.70;98.00;;;;;;5069214;28;20457;-67
2021/03/31 05:50:22;;;;;;;1.30;1.30;;;5.80;98.00;;;;;;5071014;28;20455;-67
2021/03/31 05:52:49;;;;;;;2.30;1.30;;;5.90;98.00;;;;;;5069126;28;20554;-67
2021/03/31 05:55:18;;;;;;;3.53;1.60;;;6.00;98.00;;;;;;5071009;28;20534;-67
2021/03/31 05:57:45;;;;;;;1.40;1.27;;;6.00;98.00;;;;;;5069048;28;20954;-67
2021/03/31 06:00:14;;;;;;;1.20;1.10;;;6.00;98.00;;;;;;5070647;28;20466;-67
2021/03/31 06:02:41;;;;;;;2.17;1.20;;;6.00;98.00;;;;;;5068128;28;21004;-67
2021/03/31 06:05:12;;;;;;;1.20;1.00;;;6.10;98.00;;;;;;5070646;28;20445;-67
2021/03/31 06:07:41;;;;;;;1.30;1.20;;;6.30;98.00;;;;;;5068900;28;20485;-67
2021/03/31 06:10:11;;;;;;;1.53;1.53;;;6.30;98.00;;;;;;5070650;28;20458;-67
2021/03/31 06:12:40;;;;;;;1.20;1.10;;;6.40;98.00;;;;;;5068754;28;20457;-67
2021/03/31 06:15:13;;;;;;;1.27;1.27;;;6.30;98.00;;;;;;5070510;28;20485;-67
2021/03/31 06:17:50;;;;;;;2.07;1.63;;;6.40;98.00;;;;;;5068931;28;21058;-67
2021/03/31 06:20:41;;;;;;;1.30;1.23;;;6.40;98.00;;;;;;5070897;28;20457;-67
2021/03/31 06:23:22;;;;;;;2.50;1.87;;;6.50;98.00;;;;;;5068867;28;20457;-67
2021/03/31 06:25:56;;;;;;;3.20;1.87;;;6.80;98.00;;;;;;5070593;28;20843;-67
2021/03/31 06:28:38;;;;;;;1.20;1.00;;;6.90;98.00;;;;;;5068511;28;20465;-67
2021/03/31 06:31:06;;;;;;;2.70;2.50;;;7.10;98.00;;;;;;5070285;28;20530;-67
2021/03/31 06:33:36;;;;;;;1.20;1.20;;;7.20;98.00;;;;;;5068509;28;20513;-66
2021/03/31 06:36:03;;;;;;;1.93;1.83;;;7.40;98.00;;;;;;5069138;28;20490;-66
2021/03/31 06:38:34;;;;;;;5.37;2.53;;;7.50;98.00;;;;;;5068239;28;20969;-66
2021/03/31 06:41:13;;;;;;;1.20;1.00;;;7.50;98.00;;;;;;5069753;28;20463;-66
2021/03/31 06:43:47;;;;;;;2.73;2.00;;;7.60;98.00;;;;;;5068510;28;20464;-66
2021/03/31 06:46:28;;;;;;;2.40;1.40;;;7.70;98.00;;;;;;5070225;28;20471;-67
2021/03/31 06:48:55;;;;;;;1.20;1.20;;;7.90;98.00;;;;;;5068453;28;20474;-67
2021/03/31 06:51:26;;;;;;;1.20;1.20;;;8.10;98.00;;;;;;5069902;28;20507;-67
2021/03/31 06:53:53;;;;;;;3.13;2.70;;;8.30;98.00;;;;;;5068285;28;20966;-66
2021/03/31 06:56:28;;;;;;;5.03;2.10;;;8.30;98.00;;;;;;5068835;28;20487;-67
2021/03/31 06:59:01;;;;;;;2.50;1.80;;;8.40;98.00;;;;;;5068010;28;20872;-66
2021/03/31 07:01:32;;;;;;;1.93;1.50;;;8.30;98.00;;;;;;5070056;28;20533;-66
2021/03/31 07:04:02;;;;;;;1.40;1.20;;;8.30;98.00;;;;;;5068199;28;20452;-67
2021/03/31 07:06:29;;;;;;;1.70;1.40;;;8.30;98.00;;;;;;5069973;28;20491;-66
2021/03/31 07:08:56;;;;;;;4.20;2.40;;;8.40;98.00;;;;;;5068105;28;20830;-68
2021/03/31 07:11:40;;;;;;;1.30;1.20;;;8.70;98.00;;;;;;5070013;28;20457;-67
2021/03/31 07:14:09;;;;;;;1.47;1.40;;;8.70;98.00;;;;;;5068197;28;20720;-66
2021/03/31 07:16:38;;;;;;;1.30;1.20;;;8.80;98.00;;;;;;5073699;28;20503;-66
2021/03/31 07:19:05;;;;;;;2.03;1.93;;;8.90;98.00;;;;;;5071871;28;20467;-67
2021/03/31 07:21:32;;;;;;;1.60;1.40;;;9.00;98.00;;;;;;5073584;28;20693;-66
2021/03/31 07:24:00;;;;;;;1.20;1.10;;;9.20;98.00;;;;;;5071751;28;20465;-67
2021/03/31 07:26:29;;;;;;;3.73;1.60;;;9.40;98.00;;;;;;5073241;28;20997;-67
2021/03/31 07:28:58;;;;;;;5.40;2.50;;;9.60;98.00;;;;;;5071698;28;20465;-66
2021/03/31 07:31:27;;;;;;;3.93;2.17;;;9.60;98.00;;;;;;5072014;28;20461;-67
2021/03/31 07:34:16;;;;;;;1.30;1.10;;;9.70;98.00;;;;;;5071446;28;21004;-66
2021/03/31 07:36:47;;;;;;;1.50;1.50;;;9.90;98.00;;;;;;5072100;28;20457;-67
2021/03/31 07:39:18;;;;;;;2.17;1.77;;;9.90;98.00;;;;;;5070639;28;20458;-66
2021/03/31 07:41:45;;;;;;;3.03;1.70;;;9.90;98.00;;;;;;5073046;28;20907;-67
2021/03/31 07:44:20;;;;;;;1.60;1.20;;;9.90;98.00;;;;;;5070929;28;20462;-67
2021/03/31 07:46:52;;;;;;;1.40;1.40;;;10.00;98.00;;;;;;5072707;28;20460;-68
2021/03/31 07:49:19;;;;;;;1.97;1.20;;;10.00;98.00;;;;;;5070345;28;20454;-67
2021/03/31 07:51:58;;;;;;;1.30;1.30;;;10.00;98.00;;;;;;5072660;28;20463;-67
2021/03/31 07:54:25;;;;;;;1.40;1.23;;;10.10;98.00;;;;;;5069136;28;20460;-69
2021/03/31 07:56:52;;;;;;;1.40;1.20;;;10.10;98.00;;;;;;5072722;28;20464;-67
2021/03/31 07:59:19;;;;;;;2.13;1.50;;;10.10;98.00;;;;;;5070174;28;20487;-67
2021/03/31 08:01:48;;;;;;;2.10;1.30;;;10.20;98.00;;;;;;5071367;28;20813;-66
2021/03/31 08:04:17;;;;;;;1.40;1.20;;;10.30;98.00;;;;;;5070212;28;20982;-66
2021/03/31 08:06:44;;;;;;;2.40;1.83;;;10.50;97.80;;;;;;5072250;28;20970;-66
2021/03/31 08:09:19;;;;;;;1.50;1.30;;;10.60;97.60;;;;;;5069852;28;20476;-68
2021/03/31 08:12:04;;;;;;;3.37;1.63;;;10.90;97.50;;;;;;5072559;28;20459;-66
2021/03/31 08:14:44;;;;;;;1.73;1.50;;;11.20;97.30;;;;;;5069883;28;20902;-67
2021/03/31 08:17:13;;;;;;;1.70;1.30;;;11.30;95.60;;;;;;5072318;28;20459;-67
2021/03/31 08:19:42;;;;;;;2.13;1.50;;;11.40;96.00;;;;;;5069635;28;20454;-67
2021/03/31 08:22:34;;;;;;;1.60;1.53;;;11.50;95.70;;;;;;5072038;28;20891;-67
2021/03/31 08:25:23;;;;;;;1.30;1.20;;;11.70;95.80;;;;;;5072013;28;20456;-67
2021/03/31 08:27:58;;;;;;;2.10;1.43;;;11.80;94.80;;;;;;5068986;28;20456;-67
2021/03/31 08:30:25;;;;;;;2.13;1.83;;;11.90;94.50;;;;;;5087494;28;20487;-68
2021/03/31 08:32:54;;;;;;;1.53;1.40;;;12.10;94.20;;;;;;5090345;28;20466;-68
2021/03/31 08:35:23;;;;;;;1.60;1.30;;;12.20;93.90;;;;;;5091936;28;20481;-68
2021/03/31 08:37:50;;;;;;;4.07;2.13;;;12.40;94.40;;;;;;5089360;28;20815;-68
2021/03/31 08:40:18;;;;;;;1.40;1.30;;;12.70;93.20;;;;;;5091553;28;20798;-68
2021/03/31 08:42:50;;;;;;;1.83;1.30;;;12.90;92.30;;;;;;5090081;28;20462;-68
2021/03/31 08:45:29;;;;;;;2.07;1.60;;;13.20;90.60;;;;;;5092102;28;20449;-66
2021/03/31 08:47:58;;;;;;;1.47;1.17;;;13.40;88.20;;;;;;5088296;28;20891;-68
2021/03/31 08:50:36;;;;;;;11.23;2.27;;;13.60;87.70;;;;;;5091837;28;20455;-67
2021/03/31 08:53:04;;;;;;;2.87;1.60;;;13.80;86.70;;;;;;5090158;28;20458;-68
2021/03/31 08:55:33;;;;;;;1.87;1.60;;;14.00;86.60;;;;;;5090265;28;20518;-67
2021/03/31 08:58:00;;;;;;;4.53;1.40;;;14.20;87.40;;;;;;5089455;28;20447;-67
2021/03/31 09:00:26;;;;;;;2.17;1.73;;;14.40;86.00;;;;;;5091631;28;20455;-68
2021/03/31 09:03:03;;;;;;;2.80;1.57;;;14.60;86.00;;;;;;5089282;28;20528;-69
2021/03/31 09:05:31;;;;;;;2.30;1.77;;;14.80;85.00;;;;;;5091256;28;20815;-68
2021/03/31 09:07:59;;;;;;;2.00;1.70;;;15.00;84.40;;;;;;5089701;28;20512;-67
2021/03/31 09:10:27;;;;;;;2.13;1.43;;;15.10;84.80;;;;;;5091229;28;20444;-68
2021/03/31 09:12:53;;;;;;;2.70;1.50;;;15.20;83.80;;;;;;5089244;28;20459;-69
2021/03/31 09:15:20;;;;;;;2.10;1.40;;;15.40;82.20;;;;;;5090964;28;20475;-68
2021/03/31 09:17:48;;;;;;;1.30;1.13;;;15.60;81.90;;;;;;5089345;28;20478;-67
2021/03/31 09:20:20;;;;;;;1.47;1.20;;;15.90;81.10;;;;;;5091232;28;20508;-68
2021/03/31 09:22:47;;;;;;;3.00;1.80;;;16.10;79.70;;;;;;5089456;28;20456;-68
2021/03/31 09:25:15;;;;;;;1.87;1.40;;;16.40;80.20;;;;;;5090881;28;20971;-68
2021/03/31 09:27:42;;;;;;;2.47;1.40;;;16.60;80.40;;;;;;5088051;28;20497;-68
2021/03/31 09:30:12;;;;;;;1.40;1.17;;;16.80;80.00;;;;;;5091182;28;20471;-68
2021/03/31 09:32:43;;;;;;;1.57;1.40;;;17.00;78.90;;;;;;5089292;28;20474;-68
2021/03/31 09:35:11;;;;;;;2.50;1.57;;;17.30;78.10;;;;;;5090804;28;20480;-67
2021/03/31 09:37:43;;;;;;;3.10;1.77;;;17.50;78.10;;;;;;5089022;28;20538;-70
2021/03/31 09:40:17;;;;;;;2.07;1.83;;;17.70;77.60;;;;;;5090763;28;20577;-67
2021/03/31 09:42:46;;;;;;;2.03;1.20;;;18.00;75.70;;;;;;5087903;28;20817;-67
2021/03/31 09:45:13;;;;;;;1.87;1.60;;;18.20;75.10;;;;;;5090686;28;20953;-69
2021/03/31 09:47:40;;;;;;;1.60;1.30;;;18.40;73.80;;;;;;5089019;28;20463;-68
2021/03/31 09:50:08;;;;;;;2.83;1.63;;;18.50;74.10;;;;;;5090941;28;20460;-68
2021/03/31 09:52:36;;;;;;;2.70;1.90;;;18.60;74.40;;;;;;5088910;28;20479;-68
2021/03/31 09:55:06;;;;;;;2.93;1.70;;;18.80;74.60;;;;;;5090767;28;20484;-68
2021/03/31 09:57:34;;;;;;;3.73;2.23;;;19.00;72.60;;;;;;5089780;28;20490;-68
2021/03/31 10:00:02;;;;;;;4.37;2.20;;;19.30;71.80;;;;;;5090744;28;20455;-67
2021/03/31 10:02:31;;;;;;;1.40;1.20;;;19.50;69.80;;;;;;5090610;28;20456;-68
2021/03/31 10:05:01;;;;;;;2.90;1.70;;;19.70;70.20;;;;;;5090042;28;20459;-68
2021/03/31 10:07:28;;;;;;;2.03;1.77;;;19.90;68.50;;;;;;5090560;28;20517;-68
2021/03/31 10:09:55;;;;;;;2.90;2.03;;;20.10;68.90;;;;;;5089229;28;20452;-68
2021/03/31 10:12:25;;;;;;;2.27;1.93;;;20.20;68.20;;;;;;5090424;28;20914;-69
2021/03/31 10:14:54;;;;;;;2.60;2.10;;;20.40;68.00;;;;;;5088384;28;20946;-68
2021/03/31 10:17:25;;;;;;;3.57;1.90;;;20.60;69.30;;;;;;5090535;28;20456;-69
2021/03/31 10:19:52;;;;;;;3.90;2.37;;;20.80;69.00;;;;;;5088797;28;20798;-69
2021/03/31 10:22:21;;;;;;;2.80;1.87;;;21.00;66.80;;;;;;5090318;28;20486;-68
2021/03/31 10:24:49;;;;;;;3.63;1.93;;;21.30;67.00;;;;;;5088744;28;20826;-68
2021/03/31 10:27:17;;;;;;;1.80;1.40;;;21.40;67.20;;;;;;5090114;28;20448;-68
2021/03/31 10:29:50;;;;;;;3.07;1.83;;;21.60;65.80;;;;;;5088595;28;20463;-70
2021/03/31 10:32:18;;;;;;;3.37;2.17;;;21.70;66.10;;;;;;5090112;28;20455;-69
2021/03/31 10:34:46;;;;;;;1.80;1.70;;;21.90;65.60;;;;;;5087015;28;20896;-69
2021/03/31 10:37:20;;;;;;;4.30;2.37;;;22.10;65.00;;;;;;5090366;28;20459;-68
2021/03/31 10:48:51;;;;;;;4.07;2.00;;;22.60;64.70;;;;;;5088585;28;21127;-68
2021/03/31 10:51:25;;;;;;;3.10;1.97;;;22.80;63.10;;;;;;5094963;28;20471;-68
2021/03/31 10:53:56;;;;;;;2.00;1.50;;;23.00;62.70;;;;;;5093551;28;20605;-68
2021/03/31 10:56:23;;;;;;;2.70;1.60;;;23.30;62.40;;;;;;5094741;28;20483;-67
2021/03/31 10:58:49;;;;;;;1.80;1.60;;;23.50;60.70;;;;;;5093331;28;20456;-68
2021/03/31 11:01:17;;;;;;;4.77;1.93;;;23.70;62.40;;;;;;5094282;28;20455;-68
2021/03/31 11:03:43;;;;;;;1.93;1.70;;;24.00;60.80;;;;;;5092173;28;20965;-68
2021/03/31 11:06:10;;;;;;;1.40;1.33;;;24.20;57.70;;;;;;5094035;28;20452;-69
2021/03/31 11:08:37;;;;;;;7.00;2.10;;;24.30;56.00;;;;;;5092310;28;21031;-69
2021/03/31 11:11:05;;;;;;;1.63;1.50;;;24.40;55.10;;;;;;5094146;28;20993;-69
2021/03/31 11:13:32;;;;;;;2.57;2.07;;;24.60;56.10;;;;;;5092213;28;20455;-71
2021/03/31 11:16:01;;;;;;;1.80;1.60;;;24.80;51.70;;;;;;5093558;28;20989;-67
2021/03/31 11:18:38;;;;;;;1.30;1.30;;;24.90;54.30;;;;;;5092071;28;20459;-68
2021/03/31 11:21:34;;;;;;;2.90;1.87;;;25.00;51.50;;;;;;5094152;28;20477;-68
2021/03/31 11:26:45;;;;;;;1.93;1.33;;;25.50;50.30;;;;;;5093712;28;20490;-68
2021/03/31 11:29:11;;;;;;;3.37;2.30;;;25.50;49.40;;;;;;5091808;28;20509;-70
2021/03/31 11:31:39;;;;;;;4.87;2.30;;;25.50;49.40;;;;;;5093276;28;20459;-68
2021/03/31 11:34:07;;;;;;;3.27;2.10;;;25.60;50.10;;;;;;5091671;28;20460;-68
2021/03/31 11:36:34;;;;;;;3.13;1.77;;;25.70;50.50;;;;;;5093503;28;20487;-68
2021/03/31 11:39:01;;;;;;;2.77;1.77;;;25.80;50.70;;;;;;5091308;28;20858;-69
2021/03/31 11:41:28;;;;;;;4.80;2.63;;;25.90;51.10;;;;;;5093216;28;20452;-68
2021/03/31 11:43:55;;;;;;;2.90;2.13;;;26.10;48.50;;;;;;5091235;28;20460;-67
2021/03/31 11:46:21;;;;;;;2.07;1.77;;;26.30;49.50;;;;;;5092833;28;20475;-68
2021/03/31 11:48:48;;;;;;;2.07;1.70;;;26.50;49.80;;;;;;5091182;28;20519;-68
2021/03/31 11:51:15;;;;;;;2.60;1.87;;;26.80;48.30;;;;;;5091840;28;21153;-68
2021/03/31 11:53:42;;;;;;;1.83;1.50;;;26.80;46.70;;;;;;5091383;28;20466;-71
2021/03/31 11:56:08;;;;;;;2.23;1.50;;;26.60;47.90;;;;;;5092978;28;20475;-70
2021/03/31 11:58:35;;;;;;;3.20;2.10;;;26.80;47.80;;;;;;5090901;28;20487;-68
2021/03/31 12:01:01;;;;;;;2.13;1.73;;;26.90;50.10;;;;;;5091609;28;20574;-67
2021/03/31 12:03:29;;;;;;;3.67;1.77;;;26.80;48.90;;;;;;5091161;28;20980;-67
2021/03/31 12:05:55;;;;;;;2.00;1.67;;;26.80;49.30;;;;;;5092689;28;20553;-69
2021/03/31 12:08:23;;;;;;;2.00;1.37;;;26.80;48.40;;;;;;5090960;28;20460;-68
2021/03/31 12:10:49;;;;;;;3.50;2.20;;;26.70;48.00;;;;;;5092606;28;20456;-69
2021/03/31 12:13:16;;;;;;;2.30;1.80;;;26.40;47.70;;;;;;5089681;28;20452;-68
2021/03/31 12:15:45;;;;;;;2.97;1.60;;;26.20;49.10;;;;;;5092165;28;20484;-68
2021/03/31 12:18:12;;;;;;;2.50;1.67;;;26.20;49.20;;;;;;5089695;28;20456;-68
2021/03/31 12:20:39;;;;;;;2.23;1.60;;;26.10;50.10;;;;;;5091525;28;20453;-68
2021/03/31 12:23:06;;;;;;;4.33;1.77;;;25.90;49.20;;;;;;5090543;28;20464;-69
2021/03/31 12:25:34;;;;;;;1.77;1.60;;;25.90;48.20;;;;;;5092135;28;20456;-69
2021/03/31 12:28:02;;;;;;;2.60;1.70;;;25.70;46.60;;;;;;5072903;28;20459;-68
2021/03/31 12:30:29;;;;;;;2.27;1.70;;;25.60;43.50;;;;;;5092353;28;20950;-68
2021/03/31 12:32:56;;;;;;;1.33;1.27;;;25.50;41.20;;;;;;5090137;28;20970;-68
2021/03/31 12:35:24;;;;;;;2.80;1.93;;;25.50;40.60;;;;;;5091833;28;20484;-68
2021/03/31 12:37:50;;;;;;;2.17;1.50;;;25.50;43.00;;;;;;5089695;28;20534;-68
2021/03/31 12:40:18;;;;;;;2.23;2.10;;;25.60;43.30;;;;;;5092125;28;20459;-67
2021/03/31 12:42:45;;;;;;;2.97;1.53;;;25.70;43.80;;;;;;5091740;28;20463;-67
2021/03/31 12:45:13;;;;;;;2.47;1.80;;;25.70;42.40;;;;;;5090204;28;20456;-68
2021/03/31 12:47:39;;;;;;;2.40;1.33;;;25.90;43.30;;;;;;5091777;28;20986;-67
2021/03/31 12:50:08;;;;;;;2.03;1.70;;;26.20;45.30;;;;;;5090323;28;20465;-68
2021/03/31 12:52:40;;;;;;;1.73;1.50;;;26.30;46.00;;;;;;5091635;28;20448;-69
2021/03/31 12:55:10;;;;;;;1.90;1.67;;;26.50;45.20;;;;;;5089572;28;20494;-67
2021/03/31 12:57:37;;;;;;;3.60;1.73;;;26.60;45.70;;;;;;5091681;28;20484;-68
2021/03/31 13:00:06;;;;;;;2.30;1.60;;;26.80;44.60;;;;;;5089913;28;20475;-67
2021/03/31 13:02:32;;;;;;;1.97;1.53;;;26.90;41.90;;;;;;5091622;28;20448;-66
2021/03/31 13:05:00;;;;;;;1.70;1.57;;;26.90;44.90;;;;;;5089563;28;20452;-67
2021/03/31 13:07:27;;;;;;;2.03;1.40;;;27.10;45.80;;;;;;5091568;28;20452;-67
2021/03/31 13:09:53;;;;;;;2.03;1.40;;;27.40;45.90;;;;;;5089573;28;20521;-67
2021/03/31 13:12:31;;;;;;;1.90;1.50;;;27.60;45.20;;;;;;5096675;28;20792;-68
2021/03/31 13:15:19;;;;;;;2.03;1.40;;;27.70;43.60;;;;;;5096660;28;20540;-68
2021/03/31 13:23:16;;;;;;;3.17;2.60;;;28.00;43.90;;;;;;5110329;28;20959;-68